CFG3RU EDDM-LIMC
Flight info
| Callsign | CFG3RU |
|---|---|
| Flight time | 0h 50m |
| Altitude | 24000 |
| Route | MERSI5S MERSI Y100 ATMAX Z999 KPT/N0401F230 Z999 BEMKI L607 XEBIX Y740 NATAG DCT LORLO DCT ATPED DCT LUSIL DCT EVRIP |
| Aircraft | A320/M-SDE3FGHIRWY/LB1 |
Departure
| Time | 2026-05-07 13:42 |
|---|---|
| Airport | Munich Airport (EDDM) |
Arrival
| Time | 2026-05-07 14:32 |
|---|---|
| Airport | Milan Malpensa International Airport (LIMC) |
| Time | Latitude | Longitude | Altitude | Speed | Heading |
|---|---|---|---|---|---|
| 2026-05-07 12:46 | 48.35020 | 11.77961 | 1486 ft | 0 kts | 83° |
| 2026-05-07 13:26 | 48.35020 | 11.77958 | 1485 ft | 1 kts | 83° |
| 2026-05-07 13:27 | 48.35018 | 11.77933 | 1474 ft | 3 kts | 87° |
| 2026-05-07 13:27 | 48.35018 | 11.77903 | 1476 ft | 3 kts | 94° |
| 2026-05-07 13:27 | 48.35020 | 11.77873 | 1475 ft | 3 kts | 107° |
| 2026-05-07 13:27 | 48.35028 | 11.77847 | 1471 ft | 3 kts | 137° |
| 2026-05-07 13:28 | 48.35039 | 11.77836 | 1477 ft | 1 kts | 173° |
| 2026-05-07 13:28 | 48.35043 | 11.77835 | 1475 ft | 0 kts | 173° |
| 2026-05-07 13:33 | 48.35014 | 11.77841 | 1478 ft | 6 kts | 173° |
| 2026-05-07 13:33 | 48.34963 | 11.77850 | 1480 ft | 13 kts | 173° |
| 2026-05-07 13:33 | 48.34887 | 11.77864 | 1483 ft | 10 kts | 173° |
| 2026-05-07 13:34 | 48.34823 | 11.77875 | 1485 ft | 10 kts | 173° |
| 2026-05-07 13:34 | 48.34680 | 11.77917 | 1475 ft | 9 kts | 135° |
| 2026-05-07 13:34 | 48.34671 | 11.77997 | 1485 ft | 7 kts | 83° |
| 2026-05-07 13:35 | 48.34678 | 11.78089 | 1485 ft | 13 kts | 84° |
| 2026-05-07 13:35 | 48.34690 | 11.78255 | 1485 ft | 16 kts | 83° |
| 2026-05-07 13:35 | 48.34702 | 11.78408 | 1482 ft | 14 kts | 83° |
| 2026-05-07 13:35 | 48.34713 | 11.78540 | 1480 ft | 12 kts | 82° |
| 2026-05-07 13:36 | 48.34724 | 11.78678 | 1485 ft | 18 kts | 83° |
| 2026-05-07 13:36 | 48.34740 | 11.78891 | 1479 ft | 20 kts | 83° |
| 2026-05-07 13:36 | 48.34755 | 11.79086 | 1478 ft | 18 kts | 83° |
| 2026-05-07 13:36 | 48.34769 | 11.79259 | 1475 ft | 16 kts | 83° |
| 2026-05-07 13:37 | 48.34780 | 11.79412 | 1485 ft | 14 kts | 83° |
| 2026-05-07 13:37 | 48.34779 | 11.79523 | 1478 ft | 8 kts | 118° |
| 2026-05-07 13:37 | 48.34730 | 11.79552 | 1479 ft | 11 kts | 175° |
| 2026-05-07 13:37 | 48.34647 | 11.79548 | 1485 ft | 9 kts | 198° |
| 2026-05-07 13:38 | 48.34600 | 11.79493 | 1477 ft | 10 kts | 230° |
| 2026-05-07 13:38 | 48.34551 | 11.79397 | 1478 ft | 12 kts | 233° |
| 2026-05-07 13:38 | 48.34521 | 11.79335 | 1483 ft | 5 kts | 233° |
| 2026-05-07 13:38 | 48.34504 | 11.79301 | 1479 ft | 3 kts | 233° |
| 2026-05-07 13:39 | 48.34497 | 11.79287 | 1481 ft | 0 kts | 233° |
| 2026-05-07 13:40 | 48.34484 | 11.79260 | 1474 ft | 5 kts | 233° |
| 2026-05-07 13:40 | 48.34455 | 11.79201 | 1484 ft | 8 kts | 233° |
| 2026-05-07 13:41 | 48.34408 | 11.79106 | 1482 ft | 14 kts | 231° |
| 2026-05-07 13:41 | 48.34369 | 11.79026 | 1481 ft | 0 kts | 264° |
| 2026-05-07 13:41 | 48.34351 | 11.78777 | 1485 ft | 60 kts | 263° |
| 2026-05-07 13:42 | 48.34277 | 11.77819 | 1472 ft | 122 kts | 263° |
| 2026-05-07 13:42 | 48.34157 | 11.76305 | 1578 ft | 160 kts | 264° |
| 2026-05-07 13:42 | 48.34018 | 11.74670 | 2322 ft | 157 kts | 265° |
| 2026-05-07 13:42 | 48.33901 | 11.73051 | 3046 ft | 155 kts | 265° |
| 2026-05-07 13:43 | 48.33786 | 11.71443 | 3635 ft | 154 kts | 266° |
| 2026-05-07 13:43 | 48.33669 | 11.69822 | 4134 ft | 160 kts | 265° |
| 2026-05-07 13:43 | 48.33538 | 11.68047 | 4372 ft | 182 kts | 265° |
| 2026-05-07 13:43 | 48.33389 | 11.66082 | 4781 ft | 194 kts | 264° |
| 2026-05-07 13:44 | 48.33233 | 11.64055 | 5366 ft | 196 kts | 265° |
| 2026-05-07 13:44 | 48.33088 | 11.62010 | 5982 ft | 197 kts | 264° |
| 2026-05-07 13:44 | 48.32943 | 11.59948 | 6569 ft | 199 kts | 264° |
| 2026-05-07 13:44 | 48.32794 | 11.57872 | 7150 ft | 200 kts | 264° |
| 2026-05-07 13:45 | 48.32640 | 11.55779 | 7715 ft | 203 kts | 264° |
| 2026-05-07 13:45 | 48.32487 | 11.53691 | 8271 ft | 205 kts | 264° |
| 2026-05-07 13:45 | 48.32332 | 11.51559 | 8852 ft | 206 kts | 264° |
| 2026-05-07 13:45 | 48.32171 | 11.49413 | 9433 ft | 208 kts | 262° |
| 2026-05-07 13:46 | 48.31660 | 11.47328 | 9775 ft | 227 kts | 234° |
| 2026-05-07 13:46 | 48.30458 | 11.45593 | 10018 ft | 252 kts | 223° |
| 2026-05-07 13:46 | 48.29063 | 11.43794 | 10267 ft | 276 kts | 223° |
| 2026-05-07 13:46 | 48.27547 | 11.41846 | 10482 ft | 299 kts | 223° |
| 2026-05-07 13:47 | 48.25899 | 11.39732 | 10676 ft | 322 kts | 223° |
| 2026-05-07 13:47 | 48.24162 | 11.37500 | 11098 ft | 334 kts | 222° |
| 2026-05-07 13:47 | 48.22382 | 11.35212 | 11762 ft | 339 kts | 223° |
| 2026-05-07 13:47 | 48.20584 | 11.32904 | 12472 ft | 342 kts | 223° |
| 2026-05-07 13:48 | 48.18767 | 11.30569 | 13203 ft | 345 kts | 223° |
| 2026-05-07 13:48 | 48.16941 | 11.28220 | 13914 ft | 347 kts | 223° |
| 2026-05-07 13:48 | 48.15099 | 11.25850 | 14527 ft | 350 kts | 223° |
| 2026-05-07 13:48 | 48.13241 | 11.23464 | 15096 ft | 354 kts | 223° |
| 2026-05-07 13:49 | 48.11359 | 11.21051 | 15689 ft | 357 kts | 223° |
| 2026-05-07 13:49 | 48.09462 | 11.18620 | 16271 ft | 361 kts | 223° |
| 2026-05-07 13:49 | 48.07545 | 11.16159 | 16849 ft | 365 kts | 223° |
| 2026-05-07 13:49 | 48.05608 | 11.13676 | 17433 ft | 368 kts | 223° |
| 2026-05-07 13:50 | 48.03650 | 11.11169 | 17988 ft | 372 kts | 223° |
| 2026-05-07 13:50 | 48.01669 | 11.08644 | 18510 ft | 376 kts | 222° |
| 2026-05-07 13:50 | 47.99668 | 11.06097 | 18999 ft | 380 kts | 222° |
| 2026-05-07 13:50 | 47.97590 | 11.03631 | 19490 ft | 385 kts | 216° |
| 2026-05-07 13:51 | 47.95342 | 11.01426 | 20006 ft | 388 kts | 215° |
| 2026-05-07 13:51 | 47.93078 | 10.99214 | 20506 ft | 391 kts | 215° |
| 2026-05-07 13:51 | 47.90823 | 10.97011 | 20994 ft | 394 kts | 215° |
| 2026-05-07 13:51 | 47.88487 | 10.94730 | 21481 ft | 397 kts | 215° |
| 2026-05-07 13:52 | 47.87838 | 10.94097 | 21649 ft | 398 kts | 215° |
| 2026-05-07 13:52 | 47.85510 | 10.91830 | 22128 ft | 401 kts | 215° |
| 2026-05-07 13:52 | 47.83163 | 10.89550 | 22574 ft | 404 kts | 215° |
| 2026-05-07 13:52 | 47.80798 | 10.87256 | 23030 ft | 407 kts | 215° |
| 2026-05-07 13:53 | 47.78414 | 10.84946 | 23473 ft | 410 kts | 215° |
| 2026-05-07 13:53 | 47.76010 | 10.82619 | 23850 ft | 413 kts | 215° |
| 2026-05-07 13:53 | 47.73592 | 10.80282 | 23992 ft | 415 kts | 215° |
| 2026-05-07 13:53 | 47.71169 | 10.77941 | 24031 ft | 416 kts | 215° |
| 2026-05-07 13:54 | 47.68741 | 10.75595 | 24025 ft | 416 kts | 215° |
| 2026-05-07 13:54 | 47.66316 | 10.73246 | 24021 ft | 416 kts | 215° |
| 2026-05-07 13:54 | 47.63892 | 10.70898 | 24025 ft | 416 kts | 215° |
| 2026-05-07 13:54 | 47.61466 | 10.68551 | 24022 ft | 416 kts | 215° |
| 2026-05-07 13:55 | 47.59035 | 10.66207 | 24022 ft | 416 kts | 215° |
| 2026-05-07 13:55 | 47.56604 | 10.63872 | 24020 ft | 416 kts | 215° |
| 2026-05-07 13:55 | 47.54171 | 10.61536 | 24019 ft | 416 kts | 215° |
| 2026-05-07 13:55 | 47.51740 | 10.59206 | 24015 ft | 416 kts | 215° |
| 2026-05-07 13:56 | 47.49310 | 10.56884 | 24012 ft | 416 kts | 215° |
| 2026-05-07 13:56 | 47.47701 | 10.55349 | 24008 ft | 416 kts | 215° |
| 2026-05-07 13:56 | 47.45275 | 10.53030 | 24005 ft | 415 kts | 215° |
| 2026-05-07 13:56 | 47.42767 | 10.50902 | 24001 ft | 417 kts | 207° |
| 2026-05-07 13:57 | 47.40026 | 10.49443 | 24001 ft | 420 kts | 196° |
| 2026-05-07 13:57 | 47.37133 | 10.48738 | 23986 ft | 423 kts | 186° |
| 2026-05-07 13:57 | 47.34186 | 10.48814 | 23995 ft | 425 kts | 176° |
| 2026-05-07 13:57 | 47.31239 | 10.49246 | 23994 ft | 425 kts | 176° |
| 2026-05-07 13:58 | 47.28292 | 10.49669 | 23993 ft | 425 kts | 176° |
| 2026-05-07 13:58 | 47.25347 | 10.50083 | 23993 ft | 425 kts | 176° |
| 2026-05-07 13:58 | 47.22396 | 10.50497 | 23995 ft | 426 kts | 176° |
| 2026-05-07 13:58 | 47.19444 | 10.50916 | 23993 ft | 427 kts | 176° |
| 2026-05-07 13:59 | 47.16490 | 10.51336 | 23991 ft | 426 kts | 176° |
| 2026-05-07 13:59 | 47.13539 | 10.51753 | 23986 ft | 426 kts | 176° |
| 2026-05-07 13:59 | 47.10587 | 10.52171 | 23983 ft | 427 kts | 176° |
| 2026-05-07 13:59 | 47.07634 | 10.52593 | 23984 ft | 427 kts | 175° |
| 2026-05-07 14:00 | 47.04704 | 10.53344 | 23980 ft | 428 kts | 167° |
| 2026-05-07 14:00 | 47.01854 | 10.54606 | 23976 ft | 429 kts | 164° |
| 2026-05-07 14:00 | 46.99040 | 10.55892 | 23970 ft | 429 kts | 164° |
| 2026-05-07 14:00 | 46.96191 | 10.57189 | 23971 ft | 429 kts | 164° |
| 2026-05-07 14:01 | 46.93339 | 10.58479 | 23967 ft | 429 kts | 164° |
| 2026-05-07 14:01 | 46.90481 | 10.59764 | 23967 ft | 429 kts | 164° |
| 2026-05-07 14:01 | 46.87627 | 10.61045 | 23965 ft | 429 kts | 164° |
| 2026-05-07 14:01 | 46.84771 | 10.62326 | 23962 ft | 429 kts | 164° |
| 2026-05-07 14:02 | 46.81916 | 10.63608 | 23958 ft | 429 kts | 164° |
| 2026-05-07 14:02 | 46.79063 | 10.64891 | 23961 ft | 429 kts | 164° |
| 2026-05-07 14:02 | 46.76197 | 10.66093 | 23953 ft | 428 kts | 169° |
| 2026-05-07 14:02 | 46.73259 | 10.66681 | 23949 ft | 426 kts | 179° |
| 2026-05-07 14:03 | 46.70308 | 10.66543 | 23947 ft | 423 kts | 189° |
| 2026-05-07 14:03 | 46.67426 | 10.65702 | 23946 ft | 421 kts | 198° |
| 2026-05-07 14:03 | 46.64615 | 10.64467 | 23946 ft | 421 kts | 199° |
| 2026-05-07 14:03 | 46.61805 | 10.63226 | 23950 ft | 421 kts | 199° |
| 2026-05-07 14:04 | 46.59000 | 10.61990 | 23946 ft | 421 kts | 199° |
| 2026-05-07 14:04 | 46.56198 | 10.60756 | 23946 ft | 421 kts | 199° |
| 2026-05-07 14:04 | 46.53392 | 10.59522 | 23945 ft | 421 kts | 199° |
| 2026-05-07 14:04 | 46.50591 | 10.58295 | 23943 ft | 421 kts | 199° |
| 2026-05-07 14:05 | 46.47787 | 10.57071 | 23944 ft | 421 kts | 199° |
| 2026-05-07 14:05 | 46.44984 | 10.55852 | 23946 ft | 421 kts | 199° |
| 2026-05-07 14:05 | 46.42181 | 10.54633 | 23945 ft | 421 kts | 199° |
| 2026-05-07 14:05 | 46.39374 | 10.53411 | 23948 ft | 421 kts | 199° |
| 2026-05-07 14:06 | 46.36568 | 10.52191 | 23949 ft | 421 kts | 199° |
| 2026-05-07 14:06 | 46.33801 | 10.50990 | 23950 ft | 421 kts | 199° |
| 2026-05-07 14:06 | 46.30995 | 10.49771 | 23950 ft | 421 kts | 199° |
| 2026-05-07 14:06 | 46.28193 | 10.48554 | 23945 ft | 420 kts | 199° |
| 2026-05-07 14:07 | 46.25390 | 10.47338 | 23948 ft | 420 kts | 199° |
| 2026-05-07 14:07 | 46.22593 | 10.46123 | 23950 ft | 420 kts | 199° |
| 2026-05-07 14:07 | 46.19850 | 10.44715 | 23954 ft | 418 kts | 207° |
| 2026-05-07 14:07 | 46.17331 | 10.42644 | 23956 ft | 414 kts | 218° |
| 2026-05-07 14:08 | 46.15146 | 10.39972 | 23959 ft | 411 kts | 228° |
| 2026-05-07 14:08 | 46.13350 | 10.36797 | 23957 ft | 407 kts | 238° |
| 2026-05-07 14:08 | 46.11962 | 10.33246 | 23963 ft | 405 kts | 245° |
| 2026-05-07 14:08 | 46.10687 | 10.29624 | 23960 ft | 405 kts | 245° |
| 2026-05-07 14:09 | 46.09409 | 10.26009 | 23956 ft | 405 kts | 244° |
| 2026-05-07 14:09 | 46.08125 | 10.22394 | 23964 ft | 405 kts | 245° |
| 2026-05-07 14:09 | 46.06840 | 10.18786 | 23963 ft | 405 kts | 244° |
| 2026-05-07 14:09 | 46.05551 | 10.15172 | 23977 ft | 405 kts | 244° |
| 2026-05-07 14:10 | 46.04267 | 10.11567 | 23978 ft | 404 kts | 245° |
| 2026-05-07 14:10 | 46.03009 | 10.07949 | 23983 ft | 404 kts | 245° |
| 2026-05-07 14:10 | 46.01783 | 10.04309 | 23986 ft | 404 kts | 246° |
| 2026-05-07 14:10 | 46.00572 | 10.00664 | 23988 ft | 404 kts | 246° |
| 2026-05-07 14:11 | 45.99366 | 9.97022 | 23990 ft | 404 kts | 246° |
| 2026-05-07 14:11 | 45.98154 | 9.93381 | 23987 ft | 403 kts | 246° |
| 2026-05-07 14:11 | 45.96938 | 9.89747 | 23986 ft | 403 kts | 245° |
| 2026-05-07 14:11 | 45.95719 | 9.86123 | 23996 ft | 402 kts | 245° |
| 2026-05-07 14:12 | 45.94499 | 9.82516 | 23992 ft | 401 kts | 245° |
| 2026-05-07 14:12 | 45.93274 | 9.78911 | 23991 ft | 401 kts | 245° |
| 2026-05-07 14:12 | 45.92055 | 9.75335 | 23629 ft | 397 kts | 245° |
| 2026-05-07 14:12 | 45.90844 | 9.71785 | 23008 ft | 394 kts | 245° |
| 2026-05-07 14:13 | 45.89642 | 9.68258 | 22381 ft | 391 kts | 245° |
| 2026-05-07 14:13 | 45.88452 | 9.64770 | 21824 ft | 388 kts | 245° |
| 2026-05-07 14:13 | 45.87264 | 9.61300 | 21262 ft | 385 kts | 245° |
| 2026-05-07 14:13 | 45.86086 | 9.57859 | 20759 ft | 383 kts | 245° |
| 2026-05-07 14:14 | 45.84917 | 9.54441 | 20247 ft | 380 kts | 245° |
| 2026-05-07 14:14 | 45.83757 | 9.51047 | 19762 ft | 378 kts | 245° |
| 2026-05-07 14:14 | 45.82601 | 9.47674 | 19280 ft | 375 kts | 245° |
| 2026-05-07 14:14 | 45.81453 | 9.44327 | 18806 ft | 373 kts | 245° |
| 2026-05-07 14:15 | 45.80311 | 9.40998 | 18355 ft | 371 kts | 245° |
| 2026-05-07 14:15 | 45.79175 | 9.37695 | 17848 ft | 369 kts | 245° |
| 2026-05-07 14:15 | 45.78040 | 9.34411 | 17353 ft | 366 kts | 245° |
| 2026-05-07 14:15 | 45.76924 | 9.31193 | 16864 ft | 364 kts | 245° |
| 2026-05-07 14:16 | 45.75802 | 9.27958 | 16366 ft | 361 kts | 244° |
| 2026-05-07 14:16 | 45.75010 | 9.25694 | 16018 ft | 359 kts | 244° |
| 2026-05-07 14:16 | 45.73849 | 9.22535 | 15519 ft | 357 kts | 244° |
| 2026-05-07 14:16 | 45.72740 | 9.19364 | 15088 ft | 354 kts | 245° |
| 2026-05-07 14:17 | 45.71695 | 9.16301 | 14927 ft | 330 kts | 245° |
| 2026-05-07 14:17 | 45.70726 | 9.13449 | 14734 ft | 310 kts | 245° |
| 2026-05-07 14:17 | 45.69793 | 9.10717 | 14258 ft | 302 kts | 245° |
| 2026-05-07 14:17 | 45.68869 | 9.08040 | 13668 ft | 299 kts | 244° |
| 2026-05-07 14:18 | 45.67949 | 9.05391 | 12985 ft | 296 kts | 244° |
| 2026-05-07 14:18 | 45.67033 | 9.02758 | 12325 ft | 294 kts | 244° |
| 2026-05-07 14:18 | 45.66128 | 9.00161 | 11810 ft | 290 kts | 244° |
| 2026-05-07 14:18 | 45.65231 | 8.97597 | 11362 ft | 288 kts | 244° |
| 2026-05-07 14:19 | 45.64336 | 8.95045 | 10890 ft | 286 kts | 244° |
| 2026-05-07 14:19 | 45.63454 | 8.92538 | 10552 ft | 274 kts | 244° |
| 2026-05-07 14:19 | 45.62384 | 8.90372 | 10284 ft | 265 kts | 223° |
| 2026-05-07 14:19 | 45.60835 | 8.88959 | 10039 ft | 265 kts | 201° |
| 2026-05-07 14:20 | 45.59026 | 8.88521 | 9860 ft | 266 kts | 178° |
| 2026-05-07 14:20 | 45.57192 | 8.88921 | 9635 ft | 268 kts | 171° |
| 2026-05-07 14:20 | 45.55389 | 8.89410 | 9305 ft | 266 kts | 170° |
| 2026-05-07 14:20 | 45.53579 | 8.89904 | 8977 ft | 264 kts | 170° |
| 2026-05-07 14:21 | 45.51795 | 8.90391 | 8788 ft | 256 kts | 170° |
| 2026-05-07 14:21 | 45.50072 | 8.90862 | 8570 ft | 250 kts | 170° |
| 2026-05-07 14:21 | 45.48376 | 8.91327 | 8236 ft | 247 kts | 170° |
| 2026-05-07 14:21 | 45.46690 | 8.91787 | 7918 ft | 246 kts | 170° |
| 2026-05-07 14:22 | 45.45011 | 8.92243 | 7589 ft | 244 kts | 170° |
| 2026-05-07 14:22 | 45.43346 | 8.92695 | 7253 ft | 243 kts | 170° |
| 2026-05-07 14:22 | 45.41688 | 8.93144 | 6946 ft | 242 kts | 170° |
| 2026-05-07 14:22 | 45.40038 | 8.93594 | 6623 ft | 240 kts | 169° |
| 2026-05-07 14:23 | 45.38399 | 8.94044 | 6313 ft | 239 kts | 170° |
| 2026-05-07 14:23 | 45.36772 | 8.94488 | 6003 ft | 238 kts | 170° |
| 2026-05-07 14:23 | 45.35149 | 8.94928 | 5699 ft | 237 kts | 170° |
| 2026-05-07 14:23 | 45.33532 | 8.95353 | 5386 ft | 236 kts | 173° |
| 2026-05-07 14:24 | 45.31933 | 8.95126 | 5080 ft | 232 kts | 203° |
| 2026-05-07 14:24 | 45.30661 | 8.93792 | 4759 ft | 229 kts | 234° |
| 2026-05-07 14:24 | 45.30041 | 8.91736 | 4408 ft | 228 kts | 259° |
| 2026-05-07 14:24 | 45.29750 | 8.89518 | 4079 ft | 229 kts | 259° |
| 2026-05-07 14:25 | 45.29638 | 8.87321 | 3991 ft | 218 kts | 276° |
| 2026-05-07 14:25 | 45.30012 | 8.85283 | 3997 ft | 213 kts | 294° |
| 2026-05-07 14:25 | 45.30813 | 8.83526 | 4003 ft | 213 kts | 312° |
| 2026-05-07 14:25 | 45.31964 | 8.82214 | 4004 ft | 213 kts | 331° |
| 2026-05-07 14:26 | 45.33354 | 8.81492 | 4005 ft | 214 kts | 349° |
| 2026-05-07 14:26 | 45.34816 | 8.81096 | 4008 ft | 214 kts | 349° |
| 2026-05-07 14:26 | 45.36278 | 8.80698 | 4007 ft | 214 kts | 349° |
| 2026-05-07 14:26 | 45.37740 | 8.80299 | 4009 ft | 214 kts | 349° |
| 2026-05-07 14:27 | 45.39191 | 8.79902 | 4003 ft | 209 kts | 349° |
| 2026-05-07 14:27 | 45.40561 | 8.79527 | 4031 ft | 192 kts | 349° |
| 2026-05-07 14:27 | 45.41869 | 8.79168 | 4009 ft | 192 kts | 349° |
| 2026-05-07 14:27 | 45.43182 | 8.78809 | 4003 ft | 192 kts | 349° |
| 2026-05-07 14:28 | 45.44495 | 8.78448 | 3971 ft | 193 kts | 349° |
| 2026-05-07 14:28 | 45.45814 | 8.78087 | 3818 ft | 193 kts | 349° |
| 2026-05-07 14:28 | 45.47127 | 8.77726 | 3587 ft | 191 kts | 349° |
| 2026-05-07 14:28 | 45.48413 | 8.77373 | 3344 ft | 184 kts | 349° |
| 2026-05-07 14:29 | 45.49664 | 8.77030 | 3114 ft | 182 kts | 349° |
| 2026-05-07 14:29 | 45.50895 | 8.76692 | 2867 ft | 177 kts | 349° |
| 2026-05-07 14:29 | 45.52073 | 8.76368 | 2625 ft | 167 kts | 349° |
| 2026-05-07 14:29 | 45.53171 | 8.76065 | 2421 ft | 156 kts | 349° |
| 2026-05-07 14:30 | 45.54214 | 8.75778 | 2230 ft | 150 kts | 349° |
| 2026-05-07 14:30 | 45.55232 | 8.75501 | 2042 ft | 148 kts | 349° |
| 2026-05-07 14:30 | 45.56244 | 8.75230 | 1838 ft | 148 kts | 349° |
| 2026-05-07 14:30 | 45.57258 | 8.74960 | 1609 ft | 149 kts | 348° |
| 2026-05-07 14:31 | 45.58290 | 8.74677 | 1419 ft | 151 kts | 349° |
| 2026-05-07 14:31 | 45.59308 | 8.74401 | 1211 ft | 149 kts | 348° |
| 2026-05-07 14:31 | 45.60311 | 8.74115 | 997 ft | 150 kts | 348° |
| 2026-05-07 14:31 | 45.61337 | 8.73804 | 829 ft | 151 kts | 349° |
| 2026-05-07 14:32 | 45.62347 | 8.73526 | 741 ft | 137 kts | 352° |
| 2026-05-07 14:32 | 45.63127 | 8.73326 | 735 ft | 81 kts | 347° |
| 2026-05-07 14:32 | 45.63491 | 8.73221 | 739 ft | 25 kts | 346° |
| 2026-05-07 14:32 | 45.63655 | 8.73129 | 739 ft | 26 kts | 328° |
| 2026-05-07 14:33 | 45.63792 | 8.72957 | 736 ft | 27 kts | 308° |
| 2026-05-07 14:33 | 45.63857 | 8.72824 | 736 ft | 11 kts | 304° |
| 2026-05-07 14:33 | 45.63873 | 8.72791 | 735 ft | 0 kts | 304° |
| 2026-05-07 14:34 | 45.63876 | 8.72784 | 736 ft | 5 kts | 305° |
| 2026-05-07 14:34 | 45.63908 | 8.72719 | 736 ft | 8 kts | 305° |
| 2026-05-07 14:34 | 45.63935 | 8.72660 | 736 ft | 6 kts | 303° |
| 2026-05-07 14:35 | 45.63952 | 8.72608 | 736 ft | 6 kts | 285° |
| 2026-05-07 14:35 | 45.63951 | 8.72524 | 736 ft | 8 kts | 260° |
| 2026-05-07 14:35 | 45.63942 | 8.72452 | 736 ft | 7 kts | 259° |
| 2026-05-07 14:35 | 45.63933 | 8.72390 | 735 ft | 8 kts | 259° |
| 2026-05-07 14:36 | 45.63925 | 8.72324 | 736 ft | 6 kts | 259° |
| 2026-05-07 14:36 | 45.63918 | 8.72268 | 736 ft | 9 kts | 260° |
| 2026-05-07 14:36 | 45.63915 | 8.72149 | 737 ft | 12 kts | 268° |
| 2026-05-07 14:36 | 45.63911 | 8.72040 | 738 ft | 10 kts | 266° |
| 2026-05-07 14:37 | 45.63903 | 8.71951 | 738 ft | 8 kts | 259° |
| 2026-05-07 14:37 | 45.63848 | 8.71835 | 737 ft | 6 kts | 206° |
| 2026-05-07 14:37 | 45.63810 | 8.71826 | 737 ft | 6 kts | 179° |
| 2026-05-07 14:38 | 45.63775 | 8.71832 | 736 ft | 8 kts | 168° |
| 2026-05-07 14:38 | 45.63727 | 8.71846 | 736 ft | 6 kts | 168° |
| 2026-05-07 14:38 | 45.63689 | 8.71856 | 736 ft | 5 kts | 169° |
| 2026-05-07 14:38 | 45.63661 | 8.71863 | 736 ft | 3 kts | 169° |
| 2026-05-07 14:39 | 45.63633 | 8.71871 | 737 ft | 9 kts | 169° |
| 2026-05-07 14:39 | 45.63543 | 8.71895 | 737 ft | 16 kts | 169° |
| 2026-05-07 14:39 | 45.63451 | 8.71910 | 736 ft | 9 kts | 206° |
| 2026-05-07 14:39 | 45.63423 | 8.71838 | 736 ft | 7 kts | 225° |
| 2026-05-07 14:40 | 45.63380 | 8.71831 | 736 ft | 6 kts | 171° |
| 2026-05-07 14:40 | 45.63316 | 8.71839 | 736 ft | 11 kts | 196° |
| 2026-05-07 14:40 | 45.63287 | 8.71749 | 735 ft | 10 kts | 259° |
| 2026-05-07 14:40 | 45.63264 | 8.71672 | 735 ft | 8 kts | 211° |
| 2026-05-07 14:41 | 45.63219 | 8.71673 | 735 ft | 6 kts | 168° |
| 2026-05-07 14:41 | 45.63177 | 8.71685 | 735 ft | 8 kts | 169° |
| 2026-05-07 14:41 | 45.63128 | 8.71698 | 736 ft | 6 kts | 169° |
| 2026-05-07 14:41 | 45.63098 | 8.71693 | 736 ft | 3 kts | 231° |
| 2026-05-07 14:42 | 45.63094 | 8.71671 | 736 ft | 2 kts | 256° |
| 2026-05-07 14:42 | 45.63092 | 8.71655 | 736 ft | 4 kts | 259° |
| 2026-05-07 14:42 | 45.63085 | 8.71598 | 735 ft | 5 kts | 259° |
| 2026-05-07 14:42 | 45.63084 | 8.71591 | 735 ft | 0 kts | 259° |